Time;durP1;ratioP1;P1;durP2;ratioP2;P2;SDS_P1;SDS_P2;PMS_P1;PMS_P2;Temp;Humidity;BMP_temperature;BMP_pressure;BME280_temperature;BME280_humidity;BME280_pressure;Samples;Min_cycle;Max_cycle;Signal;HPM_P1;HPM_P2
2022/09/21 00:00:53;;;;;;;2.53;1.33;;;7.60;99.90;;;;;;5077010;28;20119;-82
2022/09/21 00:03:19;;;;;;;7.18;1.83;;;7.60;99.90;;;;;;5062037;28;20103;-81
2022/09/21 00:05:45;;;;;;;3.33;1.23;;;7.50;99.90;;;;;;5081073;28;20036;-82
2022/09/21 00:08:12;;;;;;;5.03;1.50;;;7.50;99.90;;;;;;5058230;28;20059;-85
2022/09/21 00:10:39;;;;;;;3.85;1.38;;;7.40;99.90;;;;;;5061707;28;20127;-84
2022/09/21 00:13:06;;;;;;;5.07;1.90;;;7.40;99.90;;;;;;5079694;28;20048;-82
2022/09/21 00:15:32;;;;;;;3.90;1.52;;;7.30;99.90;;;;;;5082672;28;20044;-82
2022/09/21 00:17:58;;;;;;;2.85;2.00;;;7.40;99.90;;;;;;5078000;28;20174;-84
2022/09/21 00:20:26;;;;;;;6.75;2.08;;;7.40;99.90;;;;;;5081229;28;20043;-82
2022/09/21 00:22:52;;;;;;;7.97;2.50;;;7.40;99.90;;;;;;5056912;28;20049;-81
2022/09/21 00:25:19;;;;;;;3.15;2.25;;;7.40;99.90;;;;;;5075920;28;20540;-83
2022/09/21 00:27:47;;;;;;;3.78;1.75;;;7.30;99.90;;;;;;5084093;28;20071;-83
2022/09/21 00:30:14;;;;;;;5.57;1.80;;;7.30;99.90;;;;;;5071983;28;20039;-82
2022/09/21 00:32:40;;;;;;;4.40;2.05;;;7.30;99.90;;;;;;5080461;28;20044;-81
2022/09/21 00:35:06;;;;;;;6.63;2.08;;;7.30;99.90;;;;;;5056922;28;20098;-82
2022/09/21 00:37:33;;;;;;;3.80;1.55;;;7.30;99.90;;;;;;5082692;28;20056;-84
2022/09/21 00:39:59;;;;;;;5.00;2.17;;;7.30;99.90;;;;;;5057305;28;20048;-83
2022/09/21 00:42:27;;;;;;;2.90;1.63;;;7.30;99.90;;;;;;5045528;28;20139;-81
2022/09/21 00:44:53;;;;;;;3.33;1.88;;;7.30;99.90;;;;;;5077665;28;20090;-82
2022/09/21 00:47:25;;;;;;;6.32;1.60;;;7.20;99.90;;;;;;5087661;28;20045;-84
2022/09/21 00:49:54;;;;;;;7.32;2.00;;;7.20;99.90;;;;;;5076293;28;20067;-82
2022/09/21 00:52:22;;;;;;;6.57;1.55;;;7.10;99.90;;;;;;5080586;28;20032;-81
2022/09/21 00:54:58;;;;;;;6.30;1.95;;;7.10;99.90;;;;;;5080544;28;20048;-82
2022/09/21 00:57:29;;;;;;;5.82;1.60;;;7.10;99.90;;;;;;5076300;28;20040;-82
2022/09/21 01:00:01;;;;;;;4.53;1.80;;;7.10;99.90;;;;;;5081563;28;20051;-82
2022/09/21 01:02:27;;;;;;;2.72;2.15;;;7.10;99.90;;;;;;5059859;28;20107;-81
2022/09/21 01:04:54;;;;;;;3.90;1.48;;;7.00;99.90;;;;;;5059083;28;20155;-86
2022/09/21 01:07:28;;;;;;;2.63;1.65;;;7.00;99.90;;;;;;5072371;28;20036;-81
2022/09/21 01:09:58;;;;;;;7.10;1.98;;;7.00;99.90;;;;;;5089784;28;20036;-82
2022/09/21 01:13:01;;;;;;;4.82;2.08;;;6.90;99.90;;;;;;5075541;28;20044;-82
2022/09/21 01:15:49;;;;;;;3.85;1.65;;;6.90;99.90;;;;;;5073814;28;20055;-81
2022/09/21 01:18:14;;;;;;;3.75;1.80;;;6.90;99.90;;;;;;5058064;28;20074;-83
2022/09/21 01:21:07;;;;;;;3.95;1.85;;;6.90;99.90;;;;;;5061903;28;20171;-82
2022/09/21 01:24:31;;;;;;;2.88;2.30;;;6.90;99.90;;;;;;5074393;28;20433;-82
2022/09/21 01:27:20;;;;;;;5.25;1.98;;;6.90;99.90;;;;;;5051387;28;20051;-81
2022/09/21 01:29:51;;;;;;;7.63;1.83;;;6.90;99.90;;;;;;5050677;28;20320;-81
2022/09/21 01:32:20;;;;;;;7.55;2.00;;;6.90;99.90;;;;;;5065769;28;20048;-81
2022/09/21 01:35:04;;;;;;;6.88;1.60;;;6.90;99.90;;;;;;5063146;28;20047;-82
2022/09/21 01:37:41;;;;;;;5.32;2.42;;;6.90;99.90;;;;;;5077529;28;20379;-81
2022/09/21 01:40:29;;;;;;;4.28;1.92;;;6.90;99.90;;;;;;5083831;28;20521;-82
2022/09/21 01:42:57;;;;;;;5.18;1.80;;;6.80;99.90;;;;;;5079261;28;20056;-82
2022/09/21 01:45:29;;;;;;;2.83;1.45;;;6.80;99.90;;;;;;5078751;28;20093;-83
2022/09/21 01:47:56;;;;;;;;;;;6.80;99.90;;;;;;5064167;28;20468;-81
2022/09/21 01:50:23;;;;;;;3.25;1.77;;;6.80;99.90;;;;;;5062854;28;20377;-81
2022/09/21 01:52:59;;;;;;;4.53;1.40;;;6.70;99.90;;;;;;5080045;28;20055;-82
2022/09/21 01:55:38;;;;;;;4.28;1.70;;;6.70;99.90;;;;;;5059317;28;20044;-82
2022/09/21 01:58:34;;;;;;;2.03;1.52;;;6.60;99.90;;;;;;5077416;28;20032;-82
2022/09/21 02:01:01;;;;;;;4.05;1.77;;;6.60;99.90;;;;;;5049866;28;20067;-81
2022/09/21 02:03:33;;;;;;;3.33;1.65;;;6.60;99.90;;;;;;5080315;28;20053;-81
2022/09/21 02:06:00;;;;;;;;;;;6.60;99.90;;;;;;5062725;28;20540;-82
2022/09/21 02:08:26;;;;;;;2.30;2.10;;;6.60;99.90;;;;;;5061830;28;19920;-82
2022/09/21 02:10:52;;;;;;;3.90;1.75;;;6.50;99.90;;;;;;5078401;28;20043;-82
2022/09/21 02:13:22;;;;;;;3.53;1.50;;;6.50;99.90;;;;;;5082648;28;20044;-82
2022/09/21 02:16:12;;;;;;;2.25;1.60;;;6.50;99.90;;;;;;5079339;28;20051;-82
2022/09/21 02:18:59;;;;;;;2.35;1.50;;;6.40;99.90;;;;;;5063029;28;20036;-84
2022/09/21 02:21:43;;;;;;;4.78;1.95;;;6.40;99.90;;;;;;5088311;28;20429;-82
2022/09/21 02:24:30;;;;;;;2.03;1.83;;;6.30;99.90;;;;;;5093684;28;20076;-81
2022/09/21 02:27:05;;;;;;;3.03;2.22;;;6.30;99.90;;;;;;5057400;28;20040;-82
2022/09/21 02:29:37;;;;;;;5.25;1.80;;;6.30;99.90;;;;;;5081117;28;20036;-81
2022/09/21 02:32:11;;;;;;;2.53;1.83;;;6.20;99.90;;;;;;5077468;28;20139;-82
2022/09/21 02:34:39;;;;;;;4.25;1.58;;;6.20;99.90;;;;;;5062209;28;20106;-85
2022/09/21 02:37:18;;;;;;;3.38;1.90;;;6.10;99.90;;;;;;5077298;28;20067;-81
2022/09/21 02:39:59;;;;;;;2.88;1.90;;;6.20;99.90;;;;;;5080545;28;20086;-83
2022/09/21 02:42:32;;;;;;;6.00;1.73;;;6.20;99.90;;;;;;5088101;28;20047;-82
2022/09/21 02:45:05;;;;;;;2.20;1.77;;;6.20;99.90;;;;;;5083290;28;20035;-82
2022/09/21 02:47:55;;;;;;;3.65;1.90;;;6.30;99.90;;;;;;5080791;28;20036;-82
2022/09/21 02:50:46;;;;;;;6.03;1.67;;;6.20;99.90;;;;;;5060387;28;20040;-82
2022/09/21 02:53:17;;;;;;;5.57;2.22;;;6.20;99.90;;;;;;5074358;28;20067;-82
2022/09/21 02:55:45;;;;;;;5.15;2.08;;;6.20;99.90;;;;;;5091527;28;20028;-85
2022/09/21 02:58:13;;;;;;;2.55;1.50;;;6.20;99.90;;;;;;5080602;28;20051;-84
2022/09/21 03:00:39;;;;;;;5.82;1.80;;;6.30;99.90;;;;;;5079108;28;20037;-84
2022/09/21 03:03:20;;;;;;;2.97;1.90;;;6.20;99.90;;;;;;5081046;28;20122;-84
2022/09/21 03:05:48;;;;;;;4.47;1.90;;;6.30;99.90;;;;;;5082175;28;20036;-84
2022/09/21 03:08:15;;;;;;;4.03;2.05;;;6.10;99.90;;;;;;5081395;28;20032;-84
2022/09/21 03:10:41;;;;;;;4.35;1.70;;;6.20;99.90;;;;;;5068451;28;20056;-88
2022/09/21 03:13:10;;;;;;;4.95;1.77;;;6.10;99.90;;;;;;5063899;28;20058;-84
2022/09/21 03:15:37;;;;;;;2.28;1.65;;;6.10;99.90;;;;;;5078058;28;20044;-84
2022/09/21 03:18:05;;;;;;;3.78;1.55;;;6.10;99.90;;;;;;5083395;28;20094;-84
2022/09/21 03:20:32;;;;;;;4.85;1.88;;;6.10;99.90;;;;;;5061864;28;20406;-85
2022/09/21 03:22:58;;;;;;;6.20;1.65;;;6.10;99.90;;;;;;5074447;28;20032;-84
2022/09/21 03:25:24;;;;;;;4.40;2.13;;;6.20;99.90;;;;;;5074210;28;20462;-84
2022/09/21 03:27:52;;;;;;;3.42;2.50;;;6.10;99.90;;;;;;5060846;28;20093;-83
2022/09/21 03:30:22;;;;;;;5.22;2.00;;;6.20;99.90;;;;;;5078627;28;20082;-84
2022/09/21 03:32:50;;;;;;;3.72;1.52;;;6.10;99.90;;;;;;5077307;28;20040;-84
2022/09/21 03:35:16;;;;;;;3.75;1.90;;;6.10;99.90;;;;;;5077172;28;20051;-84
2022/09/21 03:37:42;;;;;;;2.60;1.75;;;6.00;99.90;;;;;;5077101;28;20272;-84
2022/09/21 03:40:08;;;;;;;3.30;1.67;;;6.00;99.90;;;;;;5084037;28;20477;-84
2022/09/21 03:42:34;;;;;;;4.03;1.80;;;6.00;99.90;;;;;;5081699;28;20059;-84
2022/09/21 03:45:01;;;;;;;2.67;1.55;;;6.00;99.90;;;;;;5079992;28;20044;-84
2022/09/21 03:47:28;;;;;;;3.55;2.00;;;6.00;99.90;;;;;;5075608;28;20880;-85
2022/09/21 03:49:53;;;;;;;3.10;1.70;;;5.90;99.90;;;;;;5080966;28;20118;-84
2022/09/21 03:52:19;;;;;;;3.83;1.90;;;5.90;99.90;;;;;;5097368;28;20538;-84
2022/09/21 03:54:44;;;;;;;5.35;2.50;;;5.90;99.90;;;;;;5081516;28;20035;-84
2022/09/21 03:57:10;;;;;;;5.03;2.13;;;5.90;99.90;;;;;;5076617;28;20048;-83
2022/09/21 03:59:36;;;;;;;3.03;2.00;;;5.90;99.90;;;;;;5061653;28;20052;-88
2022/09/21 04:02:01;;;;;;;4.85;1.90;;;5.80;99.90;;;;;;5081337;28;20149;-84
2022/09/21 04:04:27;;;;;;;5.22;1.88;;;5.70;99.90;;;;;;5079215;28;20089;-84
2022/09/21 04:06:53;;;;;;;3.30;2.05;;;5.70;99.90;;;;;;5061281;28;20078;-86
2022/09/21 04:09:18;;;;;;;2.75;2.28;;;5.50;99.90;;;;;;5084584;28;20068;-84
2022/09/21 04:11:44;;;;;;;2.17;1.48;;;5.60;99.90;;;;;;5079908;28;20510;-89
2022/09/21 04:14:11;;;;;;;1.80;1.42;;;5.60;99.90;;;;;;5078678;28;20082;-84
2022/09/21 04:16:37;;;;;;;5.43;1.83;;;5.60;99.90;;;;;;5078133;28;20056;-85
2022/09/21 04:19:02;;;;;;;3.88;1.73;;;5.60;99.90;;;;;;5077888;28;20036;-84
2022/09/21 04:21:28;;;;;;;3.22;1.85;;;5.70;99.90;;;;;;5082529;28;20040;-84
2022/09/21 04:23:54;;;;;;;6.05;1.77;;;5.60;99.90;;;;;;5095525;28;20048;-82
2022/09/21 04:26:26;;;;;;;2.60;1.63;;;5.70;99.90;;;;;;5064067;28;20131;-81
2022/09/21 04:28:52;;;;;;;3.38;1.60;;;5.70;99.90;;;;;;5079127;28;20497;-82
2022/09/21 04:31:19;;;;;;;6.35;2.05;;;5.80;99.90;;;;;;5058741;28;20482;-82
2022/09/21 04:33:51;;;;;;;2.80;1.52;;;5.80;99.90;;;;;;5079337;28;20466;-81
2022/09/21 04:36:18;;;;;;;4.45;1.80;;;5.80;99.90;;;;;;5082087;28;20415;-81
2022/09/21 04:38:45;;;;;;;3.15;1.98;;;5.70;99.90;;;;;;5060641;28;20110;-84
2022/09/21 04:41:11;;;;;;;3.13;1.80;;;5.80;99.90;;;;;;5092180;28;20548;-81
2022/09/21 04:43:37;;;;;;;4.15;2.58;;;5.70;99.90;;;;;;5079318;28;20040;-83
2022/09/21 04:46:08;;;;;;;3.60;1.90;;;5.70;99.90;;;;;;5073667;28;20044;-81
2022/09/21 04:48:34;;;;;;;6.22;2.10;;;5.60;99.90;;;;;;5092018;28;20137;-81
2022/09/21 04:51:00;;;;;;;3.45;2.38;;;5.60;99.90;;;;;;5051666;28;20045;-81
2022/09/21 04:53:26;;;;;;;3.72;2.38;;;5.60;99.90;;;;;;5076949;28;20040;-82
2022/09/21 04:55:51;;;;;;;5.75;2.65;;;5.60;99.90;;;;;;5079201;28;20517;-81
2022/09/21 04:58:17;;;;;;;5.00;2.05;;;5.60;99.90;;;;;;5079376;28;20044;-82
2022/09/21 05:00:43;;;;;;;3.45;2.30;;;5.60;99.90;;;;;;5077513;28;20111;-81
2022/09/21 05:03:08;;;;;;;4.75;2.08;;;5.50;99.90;;;;;;5059058;28;20073;-81
2022/09/21 05:05:34;;;;;;;5.90;2.70;;;5.60;99.90;;;;;;5077608;28;20063;-82
2022/09/21 05:08:00;;;;;;;4.78;2.30;;;5.60;99.90;;;;;;5060151;28;20044;-81
2022/09/21 05:10:26;;;;;;;3.78;1.85;;;5.60;99.90;;;;;;5076866;28;20055;-81
2022/09/21 05:12:51;;;;;;;6.25;1.60;;;5.70;99.90;;;;;;5078883;28;20072;-81
2022/09/21 05:15:17;;;;;;;4.03;1.90;;;5.70;99.90;;;;;;5060533;28;20650;-81
2022/09/21 05:17:43;;;;;;;4.13;2.15;;;5.60;99.90;;;;;;5071788;28;20043;-81
2022/09/21 05:20:10;;;;;;;4.65;2.35;;;5.60;99.90;;;;;;5059922;28;20036;-82
2022/09/21 05:22:36;;;;;;;5.05;1.92;;;5.60;99.90;;;;;;5074941;28;20399;-81
2022/09/21 05:25:02;;;;;;;3.22;2.03;;;5.60;99.90;;;;;;5054279;28;20042;-83
2022/09/21 05:27:27;;;;;;;4.13;2.20;;;5.70;99.90;;;;;;5071221;28;20040;-81
2022/09/21 05:29:53;;;;;;;6.20;2.40;;;5.70;99.90;;;;;;5078005;28;20109;-81
2022/09/21 05:32:39;;;;;;;3.08;2.22;;;5.70;99.90;;;;;;5079453;28;20048;-81
2022/09/21 05:35:14;;;;;;;7.22;1.92;;;5.60;99.90;;;;;;5058003;28;20052;-81
2022/09/21 05:37:46;;;;;;;8.45;2.65;;;5.60;99.90;;;;;;5060833;28;20193;-81
2022/09/21 05:40:12;;;;;;;4.90;2.42;;;5.60;99.90;;;;;;5075383;28;20040;-81
2022/09/21 05:42:38;;;;;;;3.10;2.15;;;5.60;99.90;;;;;;5063308;28;20039;-82
2022/09/21 05:45:05;;;;;;;7.38;2.72;;;5.60;99.90;;;;;;5050713;28;20036;-83
2022/09/21 05:47:54;;;;;;;9.00;2.50;;;5.60;99.90;;;;;;5066710;28;20110;-86
2022/09/21 05:50:55;;;;;;;4.90;2.28;;;5.60;99.90;;;;;;5064699;28;20390;-81
2022/09/21 05:53:33;;;;;;;6.03;1.95;;;5.60;99.90;;;;;;5061017;28;20064;-81
2022/09/21 05:56:18;;;;;;;5.78;3.33;;;5.60;99.90;;;;;;5072790;28;20048;-82
2022/09/21 05:58:55;;;;;;;5.70;2.40;;;5.60;99.90;;;;;;5079263;28;20032;-83
2022/09/21 06:01:46;;;;;;;7.13;2.42;;;5.70;99.90;;;;;;5079044;28;20493;-83
2022/09/21 06:04:12;;;;;;;4.93;2.83;;;5.70;99.90;;;;;;5076925;28;20398;-81
2022/09/21 06:06:38;;;;;;;7.28;2.55;;;5.70;99.90;;;;;;5059866;28;20040;-83
2022/09/21 06:09:04;;;;;;;4.63;2.45;;;5.80;99.90;;;;;;5079318;28;20037;-82
2022/09/21 06:11:30;;;;;;;38.45;17.08;;;5.90;99.90;;;;;;5062245;28;20044;-82
2022/09/21 06:13:56;;;;;;;6.07;3.67;;;5.90;99.90;;;;;;5063726;28;20047;-82
2022/09/21 06:16:22;;;;;;;6.40;4.30;;;6.00;99.90;;;;;;5056512;28;20040;-81
2022/09/21 06:18:47;;;;;;;6.97;3.63;;;6.10;99.90;;;;;;5079368;28;20064;-83
2022/09/21 06:21:13;;;;;;;7.75;3.10;;;6.10;99.90;;;;;;5079614;28;20052;-82
2022/09/21 06:23:39;;;;;;;6.40;3.08;;;6.20;99.90;;;;;;5100781;28;20028;-81
2022/09/21 06:26:04;;;;;;;6.78;2.75;;;6.30;99.90;;;;;;5056250;28;20043;-82
2022/09/21 06:28:30;;;;;;;6.05;3.42;;;6.30;99.90;;;;;;5062105;28;20052;-81
2022/09/21 06:30:56;;;;;;;6.75;2.50;;;6.40;99.90;;;;;;5082567;28;20217;-81
2022/09/21 06:33:22;;;;;;;4.93;2.78;;;6.30;99.90;;;;;;5074435;28;20041;-83
2022/09/21 06:35:59;;;;;;;6.30;2.85;;;6.50;99.90;;;;;;5074328;28;20045;-82
2022/09/21 06:38:26;;;;;;;3.90;2.42;;;6.60;99.90;;;;;;5068123;28;20463;-83
2022/09/21 06:40:52;;;;;;;4.90;2.78;;;6.60;99.90;;;;;;5092695;28;20043;-84
2022/09/21 06:43:19;;;;;;;10.02;2.90;;;6.70;99.90;;;;;;5082898;28;20089;-83
2022/09/21 06:45:53;;;;;;;4.63;2.90;;;6.80;99.90;;;;;;5063117;28;20067;-83
2022/09/21 06:48:18;;;;;;;10.27;2.97;;;6.90;99.90;;;;;;5089436;28;20055;-82
2022/09/21 06:50:44;;;;;;;6.85;2.88;;;7.00;99.90;;;;;;5093696;28;20044;-84
2022/09/21 06:53:10;;;;;;;5.60;2.72;;;7.00;99.90;;;;;;5086493;28;20040;-88
2022/09/21 06:55:35;;;;;;;7.70;2.75;;;7.10;99.90;;;;;;5060620;28;20076;-83
2022/09/21 06:58:02;;;;;;;10.68;2.65;;;7.10;99.90;;;;;;5060786;28;20078;-83
2022/09/21 07:00:29;;;;;;;10.75;3.80;;;7.20;99.90;;;;;;5094032;28;20076;-83
2022/09/21 07:02:54;;;;;;;9.02;4.07;;;7.30;99.90;;;;;;5086232;28;20056;-83
2022/09/21 07:05:20;;;;;;;7.97;4.57;;;7.40;99.90;;;;;;5076857;28;20040;-83
2022/09/21 07:07:46;;;;;;;10.88;4.35;;;7.40;99.90;;;;;;5102250;28;20100;-83
2022/09/21 07:10:12;;;;;;;12.70;5.32;;;7.70;99.90;;;;;;5098682;28;20046;-87
2022/09/21 07:12:37;;;;;;;8.05;3.92;;;8.20;99.90;;;;;;5059912;28;20072;-83
2022/09/21 07:15:05;;;;;;;11.43;4.95;;;9.10;99.90;;;;;;5045020;28;20037;-81
2022/09/21 07:17:32;;;;;;;10.50;4.35;;;10.20;99.90;;;;;;5084925;28;20119;-83
2022/09/21 07:19:58;;;;;;;10.02;4.38;;;11.10;99.90;;;;;;5108627;28;20126;-86
2022/09/21 07:22:24;;;;;;;6.30;3.22;;;11.80;99.90;;;;;;5075715;28;20131;-83
2022/09/21 07:24:49;;;;;;;12.98;3.97;;;12.50;99.90;;;;;;5083604;28;20057;-82
2022/09/21 07:27:15;;;;;;;11.05;4.68;;;13.00;99.90;;;;;;5083388;28;20040;-82
2022/09/21 07:29:41;;;;;;;9.82;2.97;;;13.60;99.90;;;;;;5065797;28;20052;-82
2022/09/21 07:32:08;;;;;;;6.45;2.35;;;14.10;99.90;;;;;;5064926;28;20070;-81
2022/09/21 07:34:36;;;;;;;5.63;2.28;;;14.60;99.90;;;;;;5062825;28;20123;-83
2022/09/21 07:37:02;;;;;;;6.78;2.17;;;14.90;99.90;;;;;;5072510;28;20047;-81
2022/09/21 07:39:42;;;;;;;5.70;2.35;;;15.30;99.90;;;;;;5067583;28;20047;-93
2022/09/21 07:42:08;;;;;;;3.95;1.98;;;15.70;99.90;;;;;;5055691;28;20419;-82
2022/09/21 07:44:34;;;;;;;4.32;1.85;;;16.10;99.90;;;;;;5087900;28;20154;-82
2022/09/21 07:47:02;;;;;;;3.95;1.70;;;16.30;99.90;;;;;;5082311;28;20043;-91
2022/09/21 07:49:27;;;;;;;3.97;1.55;;;16.30;99.90;;;;;;5073664;28;20426;-82
2022/09/21 07:51:53;;;;;;;5.80;1.83;;;16.40;99.90;;;;;;5084974;28;20115;-82
2022/09/21 07:54:19;;;;;;;5.05;2.38;;;16.30;99.90;;;;;;5064741;28;20123;-82
2022/09/21 07:59:04;;;;;;;5.95;2.20;;;16.30;99.90;;;;;;5057902;28;20064;-83
2022/09/21 07:59:31;;;;;;;7.45;2.58;;;16.10;99.90;;;;;;5059232;28;20063;-82
2022/09/21 08:01:57;;;;;;;9.60;2.60;;;15.50;99.90;;;;;;5089810;28;20060;-87
2022/09/21 08:04:23;;;;;;;9.13;1.98;;;14.90;99.90;;;;;;5087671;28;20186;-86
2022/09/21 08:06:48;;;;;;;7.00;2.50;;;14.70;99.90;;;;;;5055340;28;20044;-86
2022/09/21 08:09:14;;;;;;;5.32;2.55;;;14.50;99.90;;;;;;5038042;28;20100;-86
2022/09/21 08:11:43;;;;;;;5.55;2.30;;;14.10;99.90;;;;;;5069683;28;20078;-90
2022/09/21 08:14:08;;;;;;;5.97;2.38;;;13.80;99.90;;;;;;5090556;28;20040;-87
2022/09/21 08:16:36;;;;;;;8.93;3.05;;;13.40;99.90;;;;;;5027334;28;20179;-85
2022/09/21 08:19:03;;;;;;;3.38;2.08;;;13.10;99.90;;;;;;5057603;28;20127;-85
2022/09/21 08:21:29;;;;;;;8.00;2.40;;;12.90;99.90;;;;;;5086621;28;20060;-86
2022/09/21 08:23:56;;;;;;;5.38;2.08;;;12.70;99.90;;;;;;5057584;28;20029;-85
2022/09/21 08:26:23;;;;;;;5.18;2.20;;;12.60;99.90;;;;;;5063628;28;20043;-90
2022/09/21 08:29:16;;;;;;;;;;;;;;;;;;;;;
2022/09/21 08:31:45;;;;;;;6.95;2.65;;;12.40;99.90;;;;;;5070324;28;20044;-91
2022/09/21 08:34:22;;;;;;;7.30;2.70;;;12.50;99.90;;;;;;5057095;28;20032;-89
2022/09/21 08:36:53;;;;;;;8.60;2.58;;;12.50;99.90;;;;;;5054008;28;20057;-89
2022/09/21 08:39:19;;;;;;;3.25;1.70;;;12.70;99.90;;;;;;5095814;28;20040;-90
2022/09/21 08:42:12;;;;;;;6.70;2.10;;;13.00;99.90;;;;;;5029956;28;20131;-88
2022/09/21 08:44:45;;;;;;;4.38;2.20;;;13.00;99.90;;;;;;5091938;28;20044;-87
2022/09/21 08:47:56;;;;;;;5.13;2.13;;;13.10;99.90;;;;;;5104743;28;20047;-92
2022/09/21 08:50:42;;;;;;;6.70;2.38;;;13.30;99.90;;;;;;5011196;28;20477;-89
2022/09/21 08:53:30;;;;;;;7.30;2.08;;;13.30;99.90;;;;;;5040819;28;20467;-87
2022/09/21 08:55:59;;;;;;;4.25;1.98;;;13.30;99.90;;;;;;5088607;28;20445;-86
2022/09/21 08:58:29;;;;;;;4.50;1.42;;;13.60;99.90;;;;;;5041588;28;20047;-86
2022/09/21 09:01:47;;;;;;;6.20;1.67;;;13.90;99.90;;;;;;5058397;28;20043;-88
2022/09/21 09:04:40;;;;;;;14.05;2.00;;;14.00;99.90;;;;;;5041242;28;20058;-86
2022/09/21 09:07:52;;;;;;;4.57;1.52;;;14.20;99.90;;;;;;5049406;28;20170;-86
2022/09/21 09:10:27;;;;;;;6.23;1.83;;;14.70;99.90;;;;;;5053266;28;20045;-86
2022/09/21 09:13:30;;;;;;;4.68;1.60;;;15.10;99.90;;;;;;5059736;28;20375;-87
2022/09/21 09:16:02;;;;;;;6.15;1.80;;;15.10;99.90;;;;;;5029484;28;20054;-86
2022/09/21 09:18:44;;;;;;;8.20;1.70;;;15.10;99.90;;;;;;5072227;28;20036;-86
2022/09/21 09:21:30;;;;;;;7.18;1.83;;;15.30;99.90;;;;;;5073195;28;20352;-85
2022/09/21 09:23:59;;;;;;;3.35;1.25;;;15.30;99.90;;;;;;5075099;28;20147;-89
2022/09/21 09:26:57;;;;;;;7.20;1.50;;;15.80;99.90;;;;;;5037500;28;20052;-85
2022/09/21 09:29:27;;;;;;;7.30;1.85;;;16.70;99.90;;;;;;5042963;28;20052;-85
2022/09/21 09:31:54;;;;;;;4.38;1.38;;;17.50;99.90;;;;;;5049736;28;20102;-85
2022/09/21 09:34:41;;;;;;;6.10;1.45;;;18.10;99.90;;;;;;5054304;28;20446;-86
2022/09/21 09:37:15;;;;;;;3.35;1.50;;;18.60;99.90;;;;;;5053751;28;20058;-86
2022/09/21 09:39:44;;;;;;;7.25;1.70;;;18.90;99.90;;;;;;5036457;28;20470;-86
2022/09/21 09:42:09;;;;;;;5.45;1.67;;;19.30;99.90;;;;;;5085753;28;20336;-86
2022/09/21 09:44:54;;;;;;;5.03;1.50;;;19.30;99.90;;;;;;5086260;28;20050;-85
2022/09/21 09:47:49;;;;;;;6.60;1.80;;;19.40;99.90;;;;;;5085725;28;20047;-85
2022/09/21 09:50:35;;;;;;;8.00;1.42;;;19.60;99.90;;;;;;5093189;28;20080;-86
2022/09/21 09:53:05;;;;;;;4.32;0.98;;;19.90;99.90;;;;;;5103887;28;20048;-86
2022/09/21 09:55:43;;;;;;;6.18;1.80;;;20.20;99.90;;;;;;5068705;28;20102;-85
2022/09/21 09:58:18;;;;;;;5.90;1.00;;;20.40;99.90;;;;;;5037883;28;20373;-85
2022/09/21 10:00:46;;;;;;;3.75;1.27;;;20.40;99.90;;;;;;5064160;28;20072;-85
2022/09/21 10:03:18;;;;;;;4.35;1.27;;;20.30;99.90;;;;;;5075267;28;20036;-85
2022/09/21 10:05:44;;;;;;;6.10;1.48;;;20.40;99.90;;;;;;5079124;28;20110;-85
2022/09/21 10:08:29;;;;;;;2.75;1.02;;;20.20;99.90;;;;;;5041626;28;20099;-86
2022/09/21 10:10:55;;;;;;;5.85;1.30;;;19.70;98.70;;;;;;5075712;28;20098;-85
2022/09/21 10:13:24;;;;;;;3.90;1.35;;;19.20;99.90;;;;;;5047175;28;20041;-85
2022/09/21 10:16:20;;;;;;;5.30;1.25;;;18.90;99.90;;;;;;5097880;28;20127;-85
2022/09/21 10:18:55;;;;;;;12.00;1.30;;;18.70;99.30;;;;;;5064574;28;20059;-85
2022/09/21 10:21:28;;;;;;;6.80;1.17;;;18.50;99.90;;;;;;5065524;28;20040;-85
2022/09/21 10:24:06;;;;;;;3.60;1.10;;;18.30;99.90;;;;;;5090561;28;20040;-85
2022/09/21 10:26:46;;;;;;;5.25;1.08;;;18.30;99.90;;;;;;5075221;28;20048;-86
2022/09/21 10:29:20;;;;;;;6.70;1.25;;;18.30;99.90;;;;;;5063515;28;20131;-89
2022/09/21 10:32:06;;;;;;;2.70;1.02;;;18.50;99.90;;;;;;5085369;28;20047;-88
2022/09/21 10:34:33;;;;;;;6.15;1.00;;;18.70;99.90;;;;;;5088550;28;20159;-86
2022/09/21 10:37:02;;;;;;;4.13;0.80;;;18.70;99.90;;;;;;5060889;28;20393;-85
2022/09/21 10:39:31;;;;;;;1.80;0.85;;;18.70;99.90;;;;;;5060913;28;20093;-85
2022/09/21 10:42:16;;;;;;;3.50;0.70;;;18.70;99.90;;;;;;5058851;28;20246;-85
2022/09/21 10:44:42;;;;;;;4.85;0.88;;;18.60;98.10;;;;;;5055614;28;20048;-86
2022/09/21 10:47:16;;;;;;;4.13;1.02;;;18.50;99.90;;;;;;5092954;28;20122;-85
2022/09/21 10:49:51;;;;;;;5.38;0.60;;;18.60;96.80;;;;;;5077490;28;20557;-85
2022/09/21 10:52:21;;;;;;;7.32;0.90;;;18.50;95.30;;;;;;5063634;28;20082;-85
2022/09/21 10:54:51;;;;;;;5.60;1.30;;;18.00;97.60;;;;;;5055994;28;20051;-86
2022/09/21 10:57:19;;;;;;;5.25;0.60;;;17.70;98.70;;;;;;5067985;28;20047;-85
2022/09/21 10:59:45;;;;;;;4.88;1.05;;;17.30;99.70;;;;;;5055843;28;20041;-85
2022/09/21 11:02:34;;;;;;;6.72;0.90;;;17.00;99.90;;;;;;5058273;28;20049;-85
2022/09/21 11:05:41;;;;;;;15.95;6.45;;;16.80;99.90;;;;;;5089098;28;20115;-86
2022/09/21 11:08:26;;;;;;;7.65;1.45;;;16.80;99.90;;;;;;5059085;28;20063;-86
2022/09/21 11:11:03;;;;;;;5.30;0.80;;;16.90;99.90;;;;;;5093675;28;20041;-86
2022/09/21 11:13:38;;;;;;;5.22;1.02;;;16.80;99.90;;;;;;5066419;28;20044;-88
2022/09/21 11:16:20;;;;;;;6.88;1.10;;;16.70;99.90;;;;;;5068613;28;20119;-85
2022/09/21 11:19:15;;;;;;;3.60;0.80;;;16.60;99.90;;;;;;5056402;28;20364;-84
2022/09/21 11:21:51;;;;;;;3.05;1.00;;;16.50;99.90;;;;;;5027239;28;20139;-85
2022/09/21 11:24:27;;;;;;;4.80;0.95;;;16.30;99.90;;;;;;5106243;28;20048;-86
2022/09/21 11:27:09;;;;;;;5.40;0.90;;;16.20;99.90;;;;;;5076987;28;20105;-85
2022/09/21 11:30:04;;;;;;;3.15;0.60;;;16.10;99.90;;;;;;5075370;28;21121;-85
2022/09/21 11:32:51;;;;;;;5.72;0.88;;;16.00;99.90;;;;;;5069019;28;20128;-84
2022/09/21 11:35:40;;;;;;;3.80;0.82;;;16.10;99.90;;;;;;5069599;28;20044;-88
2022/09/21 11:38:32;;;;;;;5.55;1.08;;;16.40;99.90;;;;;;5017531;28;20065;-85
2022/09/21 11:41:21;;;;;;;5.05;0.80;;;16.70;99.90;;;;;;5055121;28;20037;-84
2022/09/21 11:44:24;;;;;;;1.95;0.80;;;17.00;99.90;;;;;;5043452;28;20359;-85
2022/09/21 11:47:11;;;;;;;5.50;1.00;;;17.30;98.20;;;;;;5036030;28;20056;-85
2022/09/21 11:49:55;;;;;;;6.05;1.02;;;17.50;99.90;;;;;;5037723;28;20047;-84
2022/09/21 11:52:46;;;;;;;4.13;1.00;;;17.60;99.60;;;;;;5050934;28;20080;-85
2022/09/21 11:55:22;;;;;;;6.32;0.95;;;17.90;98.90;;;;;;5055941;28;20041;-85
2022/09/21 11:57:56;;;;;;;4.82;1.00;;;18.20;99.90;;;;;;5055706;28;20094;-85
2022/09/21 12:00:26;;;;;;;2.67;0.80;;;18.50;97.70;;;;;;5056264;28;20371;-85
2022/09/21 12:03:11;;;;;;;5.00;1.08;;;18.70;98.10;;;;;;5054205;28;20052;-85
2022/09/21 12:06:01;;;;;;;2.65;0.60;;;18.70;96.40;;;;;;5089578;28;20066;-84
2022/09/21 12:08:42;;;;;;;3.50;0.70;;;18.90;95.10;;;;;;5089450;28;20091;-85
2022/09/21 12:11:22;;;;;;;2.28;0.98;;;19.00;96.50;;;;;;5089382;28;20043;-85
2022/09/21 12:14:14;;;;;;;7.30;1.25;;;19.20;96.20;;;;;;5069783;28;20383;-85
2022/09/21 12:16:59;;;;;;;5.00;0.80;;;19.40;95.10;;;;;;5054542;28;20056;-84
2022/09/21 12:19:39;;;;;;;4.70;0.82;;;19.40;93.00;;;;;;5055516;28;20044;-85
2022/09/21 12:22:16;;;;;;;3.83;1.00;;;19.40;93.00;;;;;;5071455;28;20500;-85
2022/09/21 12:24:54;;;;;;;2.40;0.60;;;19.30;93.20;;;;;;5052291;28;20106;-85
2022/09/21 12:27:28;;;;;;;6.63;0.63;;;19.30;92.20;;;;;;5073279;28;20132;-85
2022/09/21 12:30:05;;;;;;;3.05;0.68;;;19.20;93.10;;;;;;5055417;28;20494;-84
2022/09/21 12:32:55;;;;;;;5.05;0.80;;;18.90;91.80;;;;;;5072240;28;20044;-85
2022/09/21 12:35:40;;;;;;;3.08;0.60;;;18.90;91.90;;;;;;5053652;28;20143;-83
2022/09/21 12:38:35;;;;;;;2.05;0.70;;;19.00;92.00;;;;;;5071439;28;20044;-87
2022/09/21 12:41:16;;;;;;;1.75;0.75;;;19.10;91.20;;;;;;5058456;28;20040;-85
2022/09/21 12:43:41;;;;;;;5.80;1.15;;;19.30;90.10;;;;;;5092799;28;20463;-85
2022/09/21 12:46:41;;;;;;;3.00;0.60;;;19.30;89.10;;;;;;5072257;28;20032;-86
2022/09/21 12:49:26;;;;;;;5.18;0.98;;;19.30;85.80;;;;;;5074353;28;20139;-85
2022/09/21 12:51:57;;;;;;;3.20;0.70;;;19.40;87.60;;;;;;5075200;28;20100;-87
2022/09/21 12:54:40;;;;;;;2.22;0.65;;;19.60;87.10;;;;;;5058197;28;20048;-84
2022/09/21 12:57:21;;;;;;;2.78;0.85;;;19.60;87.40;;;;;;5073972;28;20044;-85
2022/09/21 13:00:06;;;;;;;3.88;0.70;;;19.50;82.80;;;;;;5074923;28;20040;-83
2022/09/21 13:03:10;;;;;;;5.03;1.08;;;19.50;85.00;;;;;;5092003;28;20048;-85
2022/09/21 13:05:49;;;;;;;3.13;0.73;;;19.70;79.70;;;;;;5072421;28;20048;-91
2022/09/21 13:08:30;;;;;;;3.47;0.68;;;19.80;78.50;;;;;;5074002;28;20486;-85
2022/09/21 13:11:03;;;;;;;1.27;0.70;;;19.80;79.30;;;;;;5075160;28;20052;-84
2022/09/21 13:13:52;;;;;;;3.15;0.85;;;19.70;80.10;;;;;;5074437;28;20374;-85
2022/09/21 13:16:34;;;;;;;2.10;0.60;;;19.80;80.50;;;;;;5088775;28;20422;-85
2022/09/21 13:19:21;;;;;;;5.63;1.15;;;20.00;76.90;;;;;;5092568;28;20036;-84
2022/09/21 13:22:24;;;;;;;2.47;0.60;;;20.00;78.50;;;;;;5074753;28;20135;-85
2022/09/21 13:25:04;;;;;;;2.67;0.70;;;20.10;74.40;;;;;;5073505;28;20049;-85
2022/09/21 13:27:59;;;;;;;4.93;1.02;;;20.20;70.80;;;;;;5100674;28;20048;-86